RYR48AP LZIB-LIRN
Flight info
| Callsign | RYR48AP |
|---|---|
| Flight time | N/A |
| Altitude | 36000 |
| Route | TOVKA DCT TISKO/N0434F370 DCT PETOV/N0434F360 DCT XAMIT/N0434F370 DCT SUXUB DCT ERIKA |
| Aircraft | B738/M-SDE2E3FGHIRWXY/LB1 |
Departure
| Time | N/A |
|---|---|
| Airport | M. R. Štefánik Airport (LZIB) |
Arrival
| Time | 2026-05-04 13:10 |
|---|---|
| Airport | Naples International Airport (LIRN) |
| Time | Latitude | Longitude | Altitude | Speed | Heading |
|---|---|---|---|---|---|
| 2026-05-04 12:47 | 41.81075 | 14.06626 | 25575 ft | 368 kts | 191° |
| 2026-05-04 12:48 | 41.78553 | 14.06162 | 25123 ft | 365 kts | 191° |
| 2026-05-04 12:48 | 41.76057 | 14.05697 | 24675 ft | 362 kts | 191° |
| 2026-05-04 12:48 | 41.74406 | 14.05388 | 24375 ft | 361 kts | 192° |
| 2026-05-04 12:48 | 41.71087 | 14.04765 | 23769 ft | 357 kts | 191° |
| 2026-05-04 12:49 | 41.68642 | 14.04329 | 23321 ft | 356 kts | 188° |
| 2026-05-04 12:49 | 41.66179 | 14.04211 | 22886 ft | 356 kts | 179° |
| 2026-05-04 12:49 | 41.63735 | 14.04777 | 22441 ft | 359 kts | 165° |
| 2026-05-04 12:49 | 41.61421 | 14.06032 | 21998 ft | 359 kts | 155° |
| 2026-05-04 12:50 | 41.59307 | 14.07729 | 21557 ft | 360 kts | 144° |
| 2026-05-04 12:50 | 41.57459 | 14.09971 | 21127 ft | 359 kts | 135° |
| 2026-05-04 12:50 | 41.55753 | 14.12423 | 20670 ft | 358 kts | 134° |
| 2026-05-04 12:50 | 41.54091 | 14.14881 | 20238 ft | 356 kts | 133° |
| 2026-05-04 12:51 | 41.52453 | 14.17294 | 19794 ft | 354 kts | 134° |
| 2026-05-04 12:51 | 41.50790 | 14.19730 | 19357 ft | 352 kts | 134° |
| 2026-05-04 12:51 | 41.49153 | 14.22115 | 18924 ft | 350 kts | 134° |
| 2026-05-04 12:51 | 41.47504 | 14.24513 | 18490 ft | 348 kts | 134° |
| 2026-05-04 12:52 | 41.45885 | 14.26863 | 18052 ft | 346 kts | 134° |
| 2026-05-04 12:52 | 41.44250 | 14.29230 | 17621 ft | 343 kts | 134° |
| 2026-05-04 12:52 | 41.42633 | 14.31564 | 17211 ft | 340 kts | 135° |
| 2026-05-04 12:52 | 41.40994 | 14.33689 | 17152 ft | 325 kts | 139° |
| 2026-05-04 12:53 | 41.39329 | 14.35618 | 16976 ft | 316 kts | 141° |
| 2026-05-04 12:53 | 41.37669 | 14.37508 | 16609 ft | 314 kts | 141° |
| 2026-05-04 12:53 | 41.36024 | 14.39398 | 16362 ft | 308 kts | 141° |
| 2026-05-04 12:53 | 41.34577 | 14.41064 | 16257 ft | 298 kts | 141° |
| 2026-05-04 12:54 | 41.32874 | 14.42779 | 16005 ft | 291 kts | 148° |
| 2026-05-04 12:54 | 41.31161 | 14.44224 | 15640 ft | 289 kts | 149° |
| 2026-05-04 12:54 | 41.29467 | 14.45608 | 15316 ft | 287 kts | 149° |
| 2026-05-04 12:54 | 41.27743 | 14.46949 | 14961 ft | 285 kts | 156° |
| 2026-05-04 12:55 | 41.25837 | 14.47612 | 14638 ft | 279 kts | 180° |
| 2026-05-04 12:55 | 41.23974 | 14.47183 | 14346 ft | 273 kts | 201° |
| 2026-05-04 12:55 | 41.22311 | 14.45978 | 14023 ft | 270 kts | 220° |
| 2026-05-04 12:55 | 41.21108 | 14.44131 | 13736 ft | 266 kts | 238° |
| 2026-05-04 12:56 | 41.20152 | 14.42036 | 13420 ft | 264 kts | 238° |
| 2026-05-04 12:56 | 41.19112 | 14.40087 | 13111 ft | 262 kts | 225° |
| 2026-05-04 12:56 | 41.17627 | 14.38731 | 12825 ft | 259 kts | 199° |
| 2026-05-04 12:56 | 41.15857 | 14.38283 | 12538 ft | 257 kts | 182° |
| 2026-05-04 12:57 | 41.14111 | 14.38564 | 12232 ft | 257 kts | 161° |
| 2026-05-04 12:57 | 41.12517 | 14.39676 | 11985 ft | 261 kts | 148° |
| 2026-05-04 12:57 | 41.10989 | 14.40998 | 11651 ft | 266 kts | 143° |
| 2026-05-04 12:57 | 41.09740 | 14.42789 | 11362 ft | 265 kts | 118° |
| 2026-05-04 12:58 | 41.09194 | 14.45078 | 11152 ft | 262 kts | 95° |
| 2026-05-04 12:58 | 41.09265 | 14.47479 | 11149 ft | 263 kts | 76° |
| 2026-05-04 12:58 | 41.10006 | 14.49686 | 11163 ft | 266 kts | 57° |
| 2026-05-04 12:58 | 41.11032 | 14.51763 | 11133 ft | 268 kts | 56° |
| 2026-05-04 12:59 | 41.12036 | 14.53835 | 11130 ft | 265 kts | 57° |
| 2026-05-04 12:59 | 41.13011 | 14.55884 | 11134 ft | 264 kts | 57° |
| 2026-05-04 12:59 | 41.13991 | 14.57953 | 11136 ft | 265 kts | 57° |
| 2026-05-04 12:59 | 41.14963 | 14.60016 | 11125 ft | 265 kts | 57° |
| 2026-05-04 13:00 | 41.15932 | 14.62102 | 11123 ft | 265 kts | 57° |
| 2026-05-04 13:00 | 41.16898 | 14.64188 | 11119 ft | 264 kts | 57° |
| 2026-05-04 13:00 | 41.17844 | 14.66233 | 11045 ft | 260 kts | 58° |
| 2026-05-04 13:00 | 41.18789 | 14.68274 | 10819 ft | 255 kts | 58° |
| 2026-05-04 13:01 | 41.19692 | 14.70301 | 10534 ft | 256 kts | 65° |
| 2026-05-04 13:01 | 41.20104 | 14.72581 | 10330 ft | 256 kts | 93° |
| 2026-05-04 13:01 | 41.19703 | 14.74792 | 10254 ft | 245 kts | 115° |
| 2026-05-04 13:01 | 41.18742 | 14.76660 | 9941 ft | 245 kts | 139° |
| 2026-05-04 13:02 | 41.17358 | 14.77913 | 9704 ft | 242 kts | 150° |
| 2026-05-04 13:02 | 41.15871 | 14.79004 | 9406 ft | 247 kts | 159° |
| 2026-05-04 13:02 | 41.14206 | 14.79399 | 9137 ft | 245 kts | 187° |
| 2026-05-04 13:02 | 41.12621 | 14.78791 | 8898 ft | 240 kts | 209° |
| 2026-05-04 13:03 | 41.11308 | 14.77484 | 8558 ft | 239 kts | 232° |
| 2026-05-04 13:03 | 41.10413 | 14.75659 | 8221 ft | 240 kts | 240° |
| 2026-05-04 13:03 | 41.09573 | 14.73772 | 7910 ft | 239 kts | 239° |
| 2026-05-04 13:03 | 41.08702 | 14.71873 | 7645 ft | 237 kts | 239° |
| 2026-05-04 13:04 | 41.07840 | 14.70015 | 7387 ft | 235 kts | 239° |
| 2026-05-04 13:04 | 41.06987 | 14.68185 | 7126 ft | 234 kts | 238° |
| 2026-05-04 13:04 | 41.06135 | 14.66360 | 6941 ft | 229 kts | 238° |
| 2026-05-04 13:04 | 41.05309 | 14.64591 | 6906 ft | 225 kts | 238° |
| 2026-05-04 13:05 | 41.04467 | 14.62790 | 6690 ft | 235 kts | 238° |
| 2026-05-04 13:05 | 41.03599 | 14.60934 | 6250 ft | 242 kts | 238° |
| 2026-05-04 13:05 | 41.02707 | 14.59029 | 5841 ft | 245 kts | 238° |
| 2026-05-04 13:05 | 41.01813 | 14.57120 | 5454 ft | 248 kts | 238° |
| 2026-05-04 13:06 | 41.00902 | 14.55177 | 5074 ft | 250 kts | 239° |
| 2026-05-04 13:06 | 40.99986 | 14.53225 | 4675 ft | 252 kts | 239° |
| 2026-05-04 13:06 | 40.99058 | 14.51248 | 4297 ft | 252 kts | 239° |
| 2026-05-04 13:06 | 40.98154 | 14.49324 | 3912 ft | 243 kts | 239° |
| 2026-05-04 13:07 | 40.97282 | 14.47469 | 3558 ft | 236 kts | 239° |
| 2026-05-04 13:07 | 40.96431 | 14.45658 | 3198 ft | 229 kts | 239° |
| 2026-05-04 13:07 | 40.95597 | 14.43887 | 2858 ft | 219 kts | 239° |
| 2026-05-04 13:07 | 40.94825 | 14.42251 | 2552 ft | 200 kts | 239° |
| 2026-05-04 13:08 | 40.94121 | 14.40755 | 2234 ft | 184 kts | 239° |
| 2026-05-04 13:08 | 40.93488 | 14.39415 | 2026 ft | 163 kts | 239° |
| 2026-05-04 13:08 | 40.92904 | 14.38173 | 1747 ft | 157 kts | 239° |
| 2026-05-04 13:08 | 40.92339 | 14.36958 | 1494 ft | 153 kts | 239° |
| 2026-05-04 13:09 | 40.91778 | 14.35799 | 1362 ft | 150 kts | 236° |
| 2026-05-04 13:09 | 40.91208 | 14.34614 | 1113 ft | 154 kts | 239° |
| 2026-05-04 13:09 | 40.90680 | 14.33431 | 848 ft | 149 kts | 236° |
| 2026-05-04 13:09 | 40.90111 | 14.32292 | 642 ft | 146 kts | 236° |
| 2026-05-04 13:10 | 40.89584 | 14.31148 | 434 ft | 149 kts | 236° |
| 2026-05-04 13:10 | 40.89046 | 14.30015 | 252 ft | 140 kts | 236° |
| 2026-05-04 13:10 | 40.88628 | 14.29126 | 258 ft | 82 kts | 237° |
| 2026-05-04 13:10 | 40.88421 | 14.28690 | 272 ft | 33 kts | 237° |
| 2026-05-04 13:11 | 40.88341 | 14.28535 | 275 ft | 14 kts | 223° |
| 2026-05-04 13:11 | 40.88268 | 14.28459 | 280 ft | 12 kts | 218° |
| 2026-05-04 13:11 | 40.88187 | 14.28393 | 284 ft | 13 kts | 209° |
| 2026-05-04 13:11 | 40.88124 | 14.28347 | 287 ft | 7 kts | 208° |
| 2026-05-04 13:12 | 40.88076 | 14.28317 | 288 ft | 3 kts | 171° |
| 2026-05-04 13:12 | 40.88057 | 14.28375 | 289 ft | 12 kts | 97° |
| 2026-05-04 13:12 | 40.88048 | 14.28477 | 290 ft | 0 kts | 96° |
| 2026-05-04 13:12 | 40.88048 | 14.28481 | 290 ft | 1 kts | 96° |
| 2026-05-04 13:13 | 40.88047 | 14.28495 | 290 ft | 1 kts | 97° |
| 2026-05-04 13:13 | 40.88046 | 14.28499 | 290 ft | 0 kts | 97° |
| 2026-05-04 13:13 | 40.88046 | 14.28500 | 290 ft | 0 kts | 97° |
| 2026-05-04 13:13 | 40.88045 | 14.28504 | 290 ft | 1 kts | 101° |
| 2026-05-04 13:14 | 40.88012 | 14.28528 | 291 ft | 11 kts | 188° |
| 2026-05-04 13:14 | 40.87946 | 14.28463 | 294 ft | 10 kts | 235° |
| 2026-05-04 13:14 | 40.87942 | 14.28379 | 294 ft | 9 kts | 278° |
| 2026-05-04 13:14 | 40.87954 | 14.28254 | 291 ft | 17 kts | 276° |
| 2026-05-04 13:15 | 40.87957 | 14.28120 | 290 ft | 12 kts | 238° |
| 2026-05-04 13:15 | 40.87903 | 14.28027 | 292 ft | 14 kts | 231° |
| 2026-05-04 13:15 | 40.87846 | 14.27943 | 294 ft | 4 kts | 195° |
| 2026-05-04 13:15 | 40.87814 | 14.27970 | 295 ft | 7 kts | 142° |
| 2026-05-04 13:16 | 40.87776 | 14.28008 | 297 ft | 2 kts | 142° |
| 2026-05-04 13:16 | 40.87775 | 14.28010 | 297 ft | 0 kts | 142° |